createdAt,value
2022-11-12T00:01:01.761Z,11.77
2022-11-12T00:03:28.303Z,11.48
2022-11-12T00:05:54.937Z,11.90
2022-11-12T00:08:22.056Z,11.13
2022-11-12T00:10:48.840Z,11.73
2022-11-12T00:13:15.937Z,11.60
2022-11-12T00:15:42.629Z,10.32
2022-11-12T00:18:09.228Z,11.43
2022-11-12T00:20:35.850Z,11.50
2022-11-12T00:23:05.152Z,11.20
2022-11-12T00:25:31.839Z,11.85
2022-11-12T00:28:05.494Z,11.52
2022-11-12T00:30:36.568Z,11.80
2022-11-12T00:33:06.221Z,10.95
2022-11-12T00:35:33.538Z,11.05
2022-11-12T00:38:00.822Z,10.73
2022-11-12T00:40:27.845Z,11.00
2022-11-12T00:42:54.708Z,10.88
2022-11-12T00:45:21.903Z,11.07
2022-11-12T00:47:48.879Z,11.05
2022-11-12T00:50:16.298Z,10.73
2022-11-12T00:52:45.455Z,10.77
2022-11-12T00:55:11.993Z,10.27
2022-11-12T00:57:38.747Z,12.00
2022-11-12T01:00:09.475Z,11.07
2022-11-12T01:02:42.334Z,11.48
2022-11-12T01:05:12.308Z,11.45
2022-11-12T01:07:41.721Z,11.40
2022-11-12T01:10:09.664Z,11.48
2022-11-12T01:12:37.025Z,11.35
2022-11-12T01:15:05.900Z,11.23
2022-11-12T01:17:32.988Z,10.88
2022-11-12T01:19:59.709Z,11.57
2022-11-12T01:22:26.186Z,10.65
2022-11-12T01:24:55.017Z,10.93
2022-11-12T01:27:21.748Z,11.40
2022-11-12T01:29:48.543Z,10.57
2022-11-12T01:32:15.096Z,11.75
2022-11-12T01:34:41.632Z,11.07
2022-11-12T01:37:09.270Z,10.80
2022-11-12T01:39:38.183Z,11.05
2022-11-12T01:42:04.720Z,11.23
2022-11-12T01:44:35.186Z,11.73
2022-11-12T01:47:13.490Z,11.00
2022-11-12T01:50:06.388Z,11.52
2022-11-12T01:52:45.220Z,10.95
2022-11-12T01:55:15.841Z,11.18
2022-11-12T01:57:50.056Z,11.60
2022-11-12T02:00:17.621Z,11.05
2022-11-12T02:02:49.826Z,11.05
2022-11-12T02:05:18.272Z,10.65
2022-11-12T02:07:46.781Z,11.38
2022-11-12T02:10:14.693Z,11.70
2022-11-12T02:13:01.019Z,11.00
2022-11-12T02:15:27.896Z,10.65
2022-11-12T02:17:54.571Z,11.55
2022-11-12T02:20:21.316Z,11.27
2022-11-12T02:22:47.861Z,11.43
2022-11-12T02:25:22.412Z,11.48
2022-11-12T02:27:52.517Z,11.75
2022-11-12T02:30:30.573Z,11.48
2022-11-12T02:32:59.751Z,11.48
2022-11-12T02:35:26.431Z,12.75
2022-11-12T02:37:53.349Z,11.57
2022-11-12T02:40:20.110Z,12.20
2022-11-12T02:42:48.919Z,11.38
2022-11-12T02:45:16.602Z,11.65
2022-11-12T02:47:43.283Z,11.48
2022-11-12T02:50:10.925Z,11.85
2022-11-12T02:52:37.633Z,11.95
2022-11-12T02:55:04.495Z,11.55
2022-11-12T02:57:31.073Z,11.95
2022-11-12T02:59:57.576Z,11.43
2022-11-12T03:02:24.174Z,11.18
2022-11-12T03:04:50.726Z,11.20
2022-11-12T03:07:17.463Z,11.13
2022-11-12T03:09:44.057Z,11.60
2022-11-12T03:12:10.697Z,11.65
2022-11-12T03:14:37.237Z,11.00
2022-11-12T03:17:06.138Z,10.70
2022-11-12T03:19:32.706Z,10.03
2022-11-12T03:22:01.386Z,10.23
2022-11-12T03:24:28.230Z,9.65
2022-11-12T03:26:57.292Z,9.57
2022-11-12T03:29:23.810Z,10.15
2022-11-12T03:31:55.572Z,9.50
2022-11-12T03:34:22.162Z,10.60
2022-11-12T03:36:48.699Z,10.43
2022-11-12T03:39:15.275Z,10.30
2022-11-12T03:41:41.824Z,10.15
2022-11-12T03:44:08.331Z,11.27
2022-11-12T03:46:44.024Z,9.82
2022-11-12T03:49:10.955Z,11.02
2022-11-12T03:51:39.820Z,10.63
2022-11-12T03:54:06.616Z,10.40
2022-11-12T03:56:33.126Z,9.95
2022-11-12T03:58:59.775Z,9.35
2022-11-12T04:01:26.491Z,10.57
2022-11-12T04:03:52.974Z,9.55
2022-11-12T04:06:38.100Z,9.90
2022-11-12T04:09:04.841Z,9.95
2022-11-12T04:11:34.352Z,10.10
2022-11-12T04:14:01.032Z,9.27
2022-11-12T04:16:46.563Z,10.10
2022-11-12T04:19:32.152Z,9.93
2022-11-12T04:22:00.604Z,9.90
2022-11-12T04:24:55.222Z,8.67
2022-11-12T04:27:28.010Z,9.43
2022-11-12T04:30:16.178Z,9.27
2022-11-12T04:32:54.861Z,8.52
2022-11-12T04:35:26.098Z,8.70
2022-11-12T04:37:55.249Z,8.75
2022-11-12T04:40:45.946Z,9.07
2022-11-12T04:43:34.361Z,8.80
2022-11-12T04:46:02.573Z,8.73
2022-11-12T04:48:29.360Z,9.18
2022-11-12T04:51:01.715Z,8.65
2022-11-12T04:53:29.583Z,8.80
2022-11-12T04:55:58.243Z,8.75
2022-11-12T04:58:25.455Z,8.23
2022-11-12T05:00:52.359Z,8.20
2022-11-12T05:03:19.005Z,8.18
2022-11-12T05:05:45.538Z,8.77
2022-11-12T05:08:12.006Z,8.43
2022-11-12T05:10:38.485Z,8.43
2022-11-12T05:13:05.001Z,8.35
2022-11-12T05:15:31.513Z,8.18
2022-11-12T05:18:00.253Z,8.83
2022-11-12T05:20:26.802Z,8.82
2022-11-12T05:23:08.281Z,8.27
2022-11-12T05:25:35.898Z,8.87
2022-11-12T05:28:02.994Z,7.93
2022-11-12T05:30:29.498Z,8.38
2022-11-12T05:32:56.319Z,8.88
2022-11-12T05:35:22.833Z,9.07
2022-11-12T05:37:49.341Z,8.27
2022-11-12T05:40:15.920Z,8.35
2022-11-12T05:42:42.408Z,8.68
2022-11-12T05:45:11.801Z,9.10
2022-11-12T05:47:38.361Z,7.97
2022-11-12T05:50:05.287Z,8.98
2022-11-12T05:52:31.824Z,8.15
2022-11-12T05:54:58.368Z,8.48
2022-11-12T05:57:27.499Z,8.50
2022-11-12T05:59:53.978Z,8.63
2022-11-12T06:02:21.881Z,8.82
2022-11-12T06:04:48.404Z,8.13
2022-11-12T06:07:15.033Z,8.98
2022-11-12T06:09:41.578Z,8.43
2022-11-12T06:12:10.431Z,7.53
2022-11-12T06:14:37.359Z,7.85
2022-11-12T06:17:03.908Z,8.40
2022-11-12T06:19:30.456Z,8.40
2022-11-12T06:21:59.230Z,8.02
2022-11-12T06:24:27.493Z,8.57
2022-11-12T06:26:57.308Z,8.15
2022-11-12T06:29:26.153Z,8.65
2022-11-12T06:31:52.717Z,8.45
2022-11-12T06:34:19.266Z,9.05
2022-11-12T06:36:48.810Z,7.90
2022-11-12T06:39:15.308Z,8.77
2022-11-12T06:41:44.216Z,8.75
2022-11-12T06:44:14.674Z,8.77
2022-11-12T06:46:44.368Z,8.32
2022-11-12T06:49:10.905Z,8.30
2022-11-12T06:51:37.453Z,8.00
2022-11-12T06:54:04.182Z,8.32
2022-11-12T06:56:30.708Z,8.13
2022-11-12T06:58:57.378Z,8.70
2022-11-12T07:01:23.955Z,8.25
2022-11-12T07:03:54.432Z,8.57
2022-11-12T07:06:21.135Z,7.60
2022-11-12T07:08:49.151Z,8.45
2022-11-12T07:11:17.394Z,8.50
2022-11-12T07:13:44.552Z,7.80
2022-11-12T07:16:18.498Z,8.30
2022-11-12T07:18:48.280Z,7.88
2022-11-12T07:21:20.464Z,7.90
2022-11-12T07:23:48.103Z,8.32
2022-11-12T07:26:17.922Z,8.93
2022-11-12T07:28:45.944Z,9.27
2022-11-12T07:31:16.864Z,8.55
2022-11-12T07:33:44.723Z,7.70
2022-11-12T07:36:14.840Z,8.57
2022-11-12T07:38:50.237Z,8.20
2022-11-12T07:41:21.712Z,8.35
2022-11-12T07:43:50.407Z,7.93
2022-11-12T07:46:19.572Z,8.30
2022-11-12T07:48:46.932Z,8.50
2022-11-12T07:51:15.352Z,8.00
2022-11-12T07:53:57.751Z,8.43
2022-11-12T07:56:26.873Z,8.57
2022-11-12T07:58:53.388Z,9.20
2022-11-12T08:01:32.090Z,9.73
2022-11-12T08:04:04.888Z,8.95
2022-11-12T08:06:32.582Z,8.95
2022-11-12T08:09:01.855Z,8.20
2022-11-12T08:11:28.441Z,8.88
2022-11-12T08:13:55.038Z,9.43
2022-11-12T08:16:24.221Z,9.65
2022-11-12T08:18:50.930Z,9.60
2022-11-12T08:21:18.426Z,9.52
2022-11-12T08:23:48.315Z,9.05
2022-11-12T08:26:21.738Z,10.48
2022-11-12T08:28:50.551Z,9.68
2022-11-12T08:31:19.817Z,10.25
2022-11-12T08:33:46.412Z,11.70
2022-11-12T08:36:15.229Z,10.70
2022-11-12T08:38:42.838Z,10.60
2022-11-12T08:41:14.244Z,12.77
2022-11-12T08:43:42.122Z,12.65
2022-11-12T08:46:08.946Z,13.73
2022-11-12T08:48:35.956Z,14.15
2022-11-12T08:51:05.893Z,13.85
2022-11-12T08:53:32.956Z,12.98
2022-11-12T08:55:59.894Z,12.32
2022-11-12T08:58:27.050Z,12.80
2022-11-12T09:00:54.346Z,13.15
2022-11-12T09:03:23.385Z,13.57
2022-11-12T09:05:53.794Z,15.00
2022-11-12T09:08:23.651Z,17.63
2022-11-12T09:10:51.462Z,17.48
2022-11-12T09:13:20.382Z,15.70
2022-11-12T09:15:47.506Z,14.52
2022-11-12T09:18:16.422Z,14.90
2022-11-12T09:20:43.165Z,14.23
2022-11-12T09:23:12.028Z,14.38
2022-11-12T09:25:42.121Z,15.48
2022-11-12T09:28:17.850Z,15.85
2022-11-12T09:30:49.660Z,13.77
2022-11-12T09:33:34.376Z,11.65
2022-11-12T09:36:02.295Z,9.32
2022-11-12T09:38:31.553Z,8.40
2022-11-12T09:41:22.512Z,8.55
2022-11-12T09:43:56.988Z,8.52
2022-11-12T09:46:41.892Z,8.73
2022-11-12T09:49:17.351Z,7.93
2022-11-12T09:51:48.789Z,7.75
2022-11-12T09:54:23.592Z,8.25
2022-11-12T09:56:54.039Z,8.27
2022-11-12T09:59:22.644Z,8.48
2022-11-12T10:01:55.033Z,9.07
2022-11-12T10:04:26.267Z,8.27
2022-11-12T10:07:09.314Z,8.30
2022-11-12T10:09:58.893Z,8.27
2022-11-12T10:12:44.423Z,8.23
2022-11-12T10:16:06.872Z,7.60
2022-11-12T10:18:51.715Z,7.97
2022-11-12T10:21:45.655Z,7.93
2022-11-12T10:24:14.975Z,7.72
2022-11-12T10:26:41.538Z,8.20
2022-11-12T10:29:11.101Z,7.85
2022-11-12T10:31:38.959Z,8.15
2022-11-12T10:34:17.173Z,7.40
2022-11-12T10:36:48.875Z,7.57
2022-11-12T10:39:36.638Z,8.40
2022-11-12T10:42:08.295Z,8.20
2022-11-12T10:44:35.087Z,7.90
2022-11-12T10:47:25.569Z,8.05
2022-11-12T10:50:14.129Z,8.88
2022-11-12T10:52:53.716Z,8.15
2022-11-12T10:55:26.631Z,7.85
2022-11-12T10:58:09.936Z,7.68
2022-11-12T11:00:38.498Z,8.20
2022-11-12T11:03:25.738Z,7.50
2022-11-12T11:06:03.056Z,8.52
2022-11-12T11:08:47.977Z,8.10
2022-11-12T11:11:21.745Z,8.60
2022-11-12T11:13:55.366Z,8.38
2022-11-12T11:16:27.970Z,8.77
2022-11-12T11:18:58.088Z,9.13
2022-11-12T11:21:46.362Z,8.30
2022-11-12T11:24:30.017Z,9.00
2022-11-12T11:27:05.588Z,8.07
2022-11-12T11:29:50.512Z,8.68
2022-11-12T11:32:55.461Z,7.45
2022-11-12T11:35:37.101Z,6.97
2022-11-12T11:38:27.955Z,6.97
2022-11-12T11:41:19.720Z,7.03
2022-11-12T11:44:24.536Z,7.78
2022-11-12T11:47:34.283Z,7.88
2022-11-12T11:50:25.683Z,7.40
2022-11-12T11:53:09.233Z,7.43
2022-11-12T11:55:42.432Z,8.18
2022-11-12T11:58:49.885Z,8.45
2022-11-12T12:01:35.269Z,8.25
2022-11-12T12:04:33.891Z,8.48
2022-11-12T12:07:12.535Z,7.75
2022-11-12T12:09:53.018Z,8.13
2022-11-12T12:12:26.714Z,8.85
2022-11-12T12:15:17.810Z,9.38
2022-11-12T12:18:06.730Z,8.70
2022-11-12T12:20:43.429Z,8.60
2022-11-12T12:23:23.610Z,8.25
2022-11-12T12:25:56.115Z,8.10
2022-11-12T12:28:52.659Z,8.48
2022-11-12T12:31:24.830Z,9.23
2022-11-12T12:33:56.828Z,8.77
2022-11-12T12:36:39.926Z,8.20
2022-11-12T12:39:34.840Z,8.13
2022-11-12T12:42:22.147Z,8.30
2022-11-12T12:45:05.049Z,7.72
2022-11-12T12:47:38.301Z,9.15
2022-11-12T12:50:11.877Z,8.55
2022-11-12T12:53:15.639Z,8.88
2022-11-12T12:55:46.921Z,8.98
2022-11-12T12:58:22.132Z,8.73
2022-11-12T13:00:51.431Z,7.82
2022-11-12T13:03:42.864Z,8.52
2022-11-12T13:06:22.098Z,8.23
2022-11-12T13:09:03.019Z,7.70
2022-11-12T13:12:00.429Z,8.57
2022-11-12T13:14:36.004Z,8.20
2022-11-12T13:17:08.509Z,8.15
2022-11-12T13:19:45.607Z,8.77
2022-11-12T13:22:18.465Z,8.73
2022-11-12T13:25:00.315Z,8.73
2022-11-12T13:27:45.106Z,8.70
2022-11-12T13:30:14.365Z,8.85
2022-11-12T13:32:44.109Z,8.60
2022-11-12T13:35:22.995Z,8.43
2022-11-12T13:37:52.756Z,8.48
2022-11-12T13:40:19.254Z,9.50
2022-11-12T13:42:49.218Z,8.48
2022-11-12T13:45:22.394Z,7.78
2022-11-12T13:47:49.164Z,8.35
2022-11-12T13:50:24.962Z,8.43
2022-11-12T13:52:54.709Z,8.25
2022-11-12T13:55:22.734Z,8.32
2022-11-12T13:57:54.729Z,8.57
2022-11-12T14:00:28.965Z,8.65
2022-11-12T14:03:02.420Z,8.48
2022-11-12T14:05:33.648Z,8.68
2022-11-12T14:08:20.718Z,8.73
2022-11-12T14:11:11.310Z,8.57
2022-11-12T14:13:56.274Z,9.18
2022-11-12T14:16:35.243Z,8.63
2022-11-12T14:19:20.901Z,9.85
2022-11-12T14:22:02.135Z,8.82
2022-11-12T14:24:28.939Z,9.07
2022-11-12T14:26:57.859Z,8.95
2022-11-12T14:29:26.754Z,9.98
2022-11-12T14:32:02.296Z,9.35
2022-11-12T14:34:33.642Z,10.02
2022-11-12T14:37:01.297Z,9.50
2022-11-12T14:39:31.650Z,10.23
2022-11-12T14:42:01.574Z,11.02
2022-11-12T14:44:36.941Z,9.60
2022-11-12T14:47:04.413Z,9.40
2022-11-12T14:49:44.856Z,9.38
2022-11-12T14:52:26.747Z,10.10
2022-11-12T14:55:00.824Z,9.93
2022-11-12T14:57:30.061Z,9.60
2022-11-12T14:59:57.402Z,10.48
2022-11-12T15:02:47.289Z,10.27
2022-11-12T15:05:21.050Z,10.32
2022-11-12T15:08:02.514Z,10.38
2022-11-12T15:10:31.985Z,10.82
2022-11-12T15:13:24.451Z,9.93
2022-11-12T15:15:55.933Z,10.23
2022-11-12T15:18:29.560Z,10.25
2022-11-12T15:21:19.395Z,10.85
2022-11-12T15:24:03.694Z,11.00
2022-11-12T15:26:36.396Z,12.52
2022-11-12T15:29:27.741Z,10.45
2022-11-12T15:32:01.136Z,10.20
2022-11-12T15:34:48.058Z,11.80
2022-11-12T15:37:19.623Z,11.98
2022-11-12T15:39:52.673Z,12.73
2022-11-12T15:42:27.838Z,15.85
2022-11-12T15:45:00.475Z,16.45
2022-11-12T15:47:27.292Z,18.77
2022-11-12T15:49:56.618Z,24.88
2022-11-12T15:52:23.307Z,26.15
2022-11-12T15:54:50.141Z,23.48
2022-11-12T15:57:29.093Z,20.42
2022-11-12T16:00:07.893Z,20.20
2022-11-12T16:02:35.511Z,22.65
2022-11-12T16:05:04.684Z,21.23
2022-11-12T16:07:33.438Z,20.65
2022-11-12T16:10:00.160Z,26.58
2022-11-12T16:12:27.625Z,25.27
2022-11-12T16:14:54.367Z,27.02
2022-11-12T16:17:21.305Z,26.58
2022-11-12T16:19:47.902Z,29.83
2022-11-12T16:22:14.408Z,29.98
2022-11-12T16:24:44.146Z,35.78
2022-11-12T16:27:16.856Z,30.67
2022-11-12T16:29:45.518Z,30.67
2022-11-12T16:32:13.966Z,29.80
2022-11-12T16:34:48.218Z,30.30
2022-11-12T16:37:16.054Z,23.40
2022-11-12T16:39:42.592Z,29.05
2022-11-12T16:42:12.593Z,26.83
2022-11-12T16:44:39.099Z,22.45
2022-11-12T16:47:05.670Z,21.10
2022-11-12T16:49:35.891Z,21.42
2022-11-12T16:52:05.238Z,21.88
2022-11-12T16:54:31.939Z,20.45
2022-11-12T16:56:58.573Z,20.90
2022-11-12T16:59:27.435Z,22.65
2022-11-12T17:01:53.998Z,22.30
2022-11-12T17:04:20.651Z,20.17
2022-11-12T17:06:47.191Z,19.50
2022-11-12T17:09:16.255Z,18.08
2022-11-12T17:11:43.048Z,17.92
2022-11-12T17:14:10.993Z,17.83
2022-11-12T17:16:39.805Z,17.15
2022-11-12T17:19:06.500Z,16.38
2022-11-12T17:21:33.082Z,15.55
2022-11-12T17:23:59.590Z,15.95
2022-11-12T17:26:26.160Z,15.48
2022-11-12T17:28:58.570Z,14.27
2022-11-12T17:31:28.089Z,14.02
2022-11-12T17:33:56.832Z,13.82
2022-11-12T17:36:25.911Z,14.80
2022-11-12T17:38:57.162Z,14.27
2022-11-12T17:41:23.991Z,15.20
2022-11-12T17:43:57.405Z,16.15
2022-11-12T17:46:23.985Z,16.08
2022-11-12T17:48:51.246Z,15.77
2022-11-12T17:51:20.528Z,16.73
2022-11-12T17:53:47.267Z,17.80
2022-11-12T17:56:16.324Z,15.88
2022-11-12T17:58:45.372Z,16.30
2022-11-12T18:01:15.310Z,16.58
2022-11-12T18:03:44.066Z,17.38
2022-11-12T18:06:16.578Z,18.55
2022-11-12T18:08:43.579Z,16.77
2022-11-12T18:11:14.370Z,16.42
2022-11-12T18:13:41.126Z,19.75
2022-11-12T18:16:16.389Z,29.27
2022-11-12T18:18:46.479Z,32.60
2022-11-12T18:21:13.326Z,36.33
2022-11-12T18:23:42.179Z,32.53
2022-11-12T18:26:08.789Z,22.98
2022-11-12T18:28:35.702Z,25.60
2022-11-12T18:31:04.454Z,21.00
2022-11-12T18:33:31.572Z,24.00
2022-11-12T18:36:06.783Z,23.02
2022-11-12T18:38:34.787Z,20.38
2022-11-12T18:41:10.070Z,19.13
2022-11-12T18:43:37.215Z,18.20
2022-11-12T18:46:04.804Z,17.13
2022-11-12T18:48:33.426Z,18.20
2022-11-12T18:51:02.516Z,16.83
2022-11-12T18:53:32.250Z,18.30
2022-11-12T18:56:02.133Z,21.58
2022-11-12T18:58:34.628Z,18.55
2022-11-12T19:01:10.413Z,18.17
2022-11-12T19:03:37.431Z,15.75
2022-11-12T19:06:07.261Z,16.77
2022-11-12T19:08:36.661Z,15.55
2022-11-12T19:11:05.891Z,15.82
2022-11-12T19:13:32.729Z,15.65
2022-11-12T19:16:07.482Z,15.20
2022-11-12T19:18:37.674Z,16.75
2022-11-12T19:21:07.691Z,16.42
2022-11-12T19:23:34.809Z,18.27
2022-11-12T19:26:02.767Z,17.60
2022-11-12T19:28:30.381Z,17.73
2022-11-12T19:31:03.703Z,18.30
2022-11-12T19:33:30.289Z,19.83
2022-11-12T19:36:06.734Z,18.63
2022-11-12T19:38:33.994Z,17.77
2022-11-12T19:41:17.769Z,17.83
2022-11-12T19:43:45.846Z,18.13
2022-11-12T19:46:12.422Z,18.95
2022-11-12T19:48:39.349Z,18.45
2022-11-12T19:51:08.753Z,17.67
2022-11-12T19:53:38.509Z,16.80
2022-11-12T19:56:06.685Z,17.10
2022-11-12T19:58:34.280Z,15.90
2022-11-12T20:01:06.209Z,15.73
2022-11-12T20:03:35.557Z,16.90
2022-11-12T20:06:05.093Z,18.02
2022-11-12T20:08:34.124Z,16.23
2022-11-12T20:11:01.791Z,17.20
2022-11-12T20:13:28.508Z,17.60
2022-11-12T20:15:55.266Z,19.75
2022-11-12T20:18:21.867Z,18.38
2022-11-12T20:20:51.039Z,16.75
2022-11-12T20:23:17.871Z,17.48
2022-11-12T20:25:44.357Z,18.20
2022-11-12T20:28:11.778Z,19.30
2022-11-12T20:30:38.471Z,18.17
2022-11-12T20:33:05.209Z,18.75
2022-11-12T20:35:40.063Z,16.95
2022-11-12T20:38:09.130Z,17.67
2022-11-12T20:40:35.681Z,17.42
2022-11-12T20:43:02.498Z,17.15
2022-11-12T20:45:31.318Z,17.05
2022-11-12T20:47:57.969Z,16.65
2022-11-12T20:50:24.776Z,16.33
2022-11-12T20:52:54.074Z,14.80
2022-11-12T20:55:20.723Z,16.42
2022-11-12T20:57:47.617Z,15.27
2022-11-12T21:00:22.896Z,15.35
2022-11-12T21:02:50.628Z,14.82
2022-11-12T21:05:19.639Z,15.20
2022-11-12T21:07:51.292Z,14.60
2022-11-12T21:10:20.336Z,15.32
2022-11-12T21:12:46.788Z,14.35
2022-11-12T21:15:16.022Z,14.13
2022-11-12T21:17:42.538Z,15.43
2022-11-12T21:20:09.535Z,14.27
2022-11-12T21:22:36.385Z,15.27
2022-11-12T21:25:03.083Z,15.15
2022-11-12T21:27:31.915Z,16.27
2022-11-12T21:29:58.938Z,17.45
2022-11-12T21:32:25.663Z,16.13
2022-11-12T21:34:58.581Z,20.45
2022-11-12T21:37:27.637Z,21.80
2022-11-12T21:39:54.123Z,20.77
2022-11-12T21:42:20.676Z,17.77
2022-11-12T21:44:47.523Z,16.27
2022-11-12T21:47:14.424Z,15.70
2022-11-12T21:49:43.227Z,13.70
2022-11-12T21:52:12.699Z,13.48
2022-11-12T21:54:40.254Z,12.77
2022-11-12T21:57:07.029Z,13.65
2022-11-12T21:59:33.613Z,13.38
2022-11-12T22:02:00.109Z,13.70
2022-11-12T22:04:29.341Z,13.20
2022-11-12T22:06:55.849Z,11.75
2022-11-12T22:09:22.364Z,12.10
2022-11-12T22:11:48.923Z,11.93
2022-11-12T22:14:15.795Z,11.38
2022-11-12T22:16:42.469Z,11.15
2022-11-12T22:19:09.740Z,12.70
2022-11-12T22:21:39.895Z,11.43
2022-11-12T22:24:07.524Z,12.90
2022-11-12T22:26:34.400Z,11.93
2022-11-12T22:29:01.137Z,12.25
2022-11-12T22:31:29.809Z,12.63
2022-11-12T22:33:58.310Z,11.93
2022-11-12T22:36:27.421Z,12.75
2022-11-12T22:38:54.860Z,12.35
2022-11-12T22:41:34.042Z,12.38
2022-11-12T22:44:02.772Z,11.48
2022-11-12T22:46:34.825Z,12.95
2022-11-12T22:49:03.693Z,12.70
2022-11-12T22:51:31.850Z,12.13
2022-11-12T22:54:01.231Z,12.90
2022-11-12T22:56:28.950Z,12.70
2022-11-12T22:58:58.475Z,12.18
2022-11-12T23:01:28.078Z,11.77
2022-11-12T23:03:57.339Z,12.18
2022-11-12T23:06:25.244Z,11.43
2022-11-12T23:08:53.486Z,11.88
2022-11-12T23:11:21.029Z,10.45
2022-11-12T23:13:48.409Z,11.82
2022-11-12T23:16:18.011Z,11.07
2022-11-12T23:18:47.412Z,10.13
2022-11-12T23:21:23.831Z,11.40
2022-11-12T23:23:50.959Z,11.15
2022-11-12T23:26:23.066Z,10.07
2022-11-12T23:28:50.589Z,9.95
2022-11-12T23:31:22.987Z,10.48
2022-11-12T23:33:55.122Z,10.73
2022-11-12T23:36:23.463Z,10.70
2022-11-12T23:38:51.239Z,10.02
2022-11-12T23:41:22.983Z,10.30
2022-11-12T23:43:50.312Z,11.07
2022-11-12T23:46:19.092Z,9.40
2022-11-12T23:48:46.038Z,10.02
2022-11-12T23:51:24.723Z,10.10
2022-11-12T23:53:51.420Z,10.13
2022-11-12T23:56:19.968Z,10.13
2022-11-12T23:58:46.921Z,10.40
